Time;durP1;ratioP1;P1;durP2;ratioP2;P2;SDS_P1;SDS_P2;PMS_P1;PMS_P2;Temp;Humidity;BMP_temperature;BMP_pressure;BME280_temperature;BME280_humidity;BME280_pressure;Samples;Min_cycle;Max_cycle;Signal;HPM_P1;HPM_P2
2022/07/02 00:01:56;;;;;;;5.57;4.43;;;;;;;;;;4969719;28;20269;-85
2022/07/02 00:04:29;;;;;;;5.17;4.50;;;;;;;;;;4970688;28;20196;-84
2022/07/02 00:06:56;;;;;;;4.80;4.00;;;;;;;;;;4971153;28;20688;-84
2022/07/02 00:09:23;;;;;;;4.83;4.43;;;;;;;;;;4970674;28;20755;-85
2022/07/02 00:11:51;;;;;;;13.33;4.40;;;;;;;;;;4970615;28;20201;-84
2022/07/02 00:14:18;;;;;;;6.27;4.50;;;;;;;;;;4970570;28;20763;-85
2022/07/02 00:16:45;;;;;;;5.23;4.40;;;;;;;;;;4970061;28;20692;-85
2022/07/02 00:19:14;;;;;;;5.50;5.00;;;;;;;;;;4970550;28;20201;-85
2022/07/02 00:21:41;;;;;;;5.00;4.60;;;;;;;;;;4970710;28;20255;-85
2022/07/02 00:24:09;;;;;;;4.77;4.37;;;;;;;;;;4970454;28;20292;-85
2022/07/02 00:26:39;;;;;;;4.53;4.13;;;;;;;;;;4970870;28;20262;-85
2022/07/02 00:29:12;;;;;;;4.73;4.43;;;;;;;;;;4970531;28;20258;-84
2022/07/02 00:31:40;;;;;;;4.70;4.30;;;;;;;;;;4970767;28;20275;-84
2022/07/02 00:34:08;;;;;;;5.23;4.50;;;;;;;;;;4970339;28;20731;-84
2022/07/02 00:36:36;;;;;;;5.83;4.87;;;;;;;;;;4970533;28;20255;-84
2022/07/02 00:39:03;;;;;;;8.57;5.17;;;;;;;;;;4970434;28;20257;-84
2022/07/02 00:41:31;;;;;;;6.03;4.97;;;;;;;;;;4970700;28;20559;-84
2022/07/02 00:43:58;;;;;;;5.90;5.40;;;;;;;;;;4970224;28;20685;-84
2022/07/02 00:46:26;;;;;;;17.07;6.03;;;;;;;;;;4970349;28;20224;-84
2022/07/02 00:48:54;;;;;;;7.47;4.70;;;;;;;;;;4970182;28;20221;-84
2022/07/02 00:51:21;;;;;;;5.53;5.13;;;;;;;;;;4970375;28;20201;-84
2022/07/02 00:53:50;;;;;;;9.93;5.17;;;;;;;;;;4970101;28;20205;-83
2022/07/02 00:56:17;;;;;;;7.47;5.53;;;;;;;;;;4970114;28;20717;-85
2022/07/02 00:58:44;;;;;;;6.00;5.50;;;;;;;;;;4969824;28;20196;-84
2022/07/02 01:01:11;;;;;;;6.47;5.00;;;;;;;;;;4962813;28;20205;-84
2022/07/02 01:03:38;;;;;;;6.20;5.70;;;;;;;;;;4970164;28;20637;-83
2022/07/02 01:06:06;;;;;;;5.57;5.13;;;;;;;;;;4970134;28;20258;-84
2022/07/02 01:11:19;;;;;;;5.30;4.80;;;;;;;;;;4969978;28;20250;-85
2022/07/02 01:13:46;;;;;;;7.47;5.23;;;;;;;;;;4970138;28;20262;-84
2022/07/02 01:16:13;;;;;;;5.73;5.27;;;;;;;;;;4969979;28;20201;-84
2022/07/02 01:18:41;;;;;;;5.73;5.23;;;;;;;;;;4969883;28;20202;-84
2022/07/02 01:21:08;;;;;;;6.27;5.13;;;;;;;;;;4970118;28;20208;-84
2022/07/02 01:23:36;;;;;;;5.53;5.03;;;;;;;;;;4970070;28;20205;-84
2022/07/02 01:26:04;;;;;;;5.80;5.30;;;;;;;;;;4970207;28;20265;-84
2022/07/02 01:28:31;;;;;;;5.73;5.23;;;;;;;;;;4970634;28;20228;-84
2022/07/02 01:30:58;;;;;;;4.97;4.57;;;;;;;;;;4973477;28;20205;-84
2022/07/02 01:33:25;;;;;;;5.33;4.93;;;;;;;;;;4973056;28;20204;-84
2022/07/02 01:35:52;;;;;;;5.50;5.10;;;;;;;;;;4973499;28;20255;-85
2022/07/02 01:38:19;;;;;;;6.27;5.17;;;;;;;;;;4973247;28;20219;-84
2022/07/02 01:40:47;;;;;;;5.27;4.83;;;;;;;;;;4972990;28;20197;-84
2022/07/02 01:43:14;;;;;;;5.67;5.17;;;;;;;;;;4973308;28;20205;-84
2022/07/02 01:45:41;;;;;;;6.77;5.93;;;;;;;;;;4973179;28;20337;-84
2022/07/02 01:48:08;;;;;;;5.97;5.47;;;;;;;;;;4973204;28;20224;-84
2022/07/02 01:50:36;;;;;;;6.20;5.70;;;;;;;;;;4972597;28;20205;-85
2022/07/02 01:53:03;;;;;;;7.30;5.37;;;;;;;;;;4973100;28;20258;-84
2022/07/02 01:55:30;;;;;;;5.87;5.47;;;;;;;;;;4972659;28;20276;-84
2022/07/02 01:57:59;;;;;;;6.23;5.70;;;;;;;;;;4972892;28;20258;-85
2022/07/02 02:00:26;;;;;;;5.40;5.10;;;;;;;;;;4972363;28;20205;-84
2022/07/02 02:02:53;;;;;;;5.90;5.40;;;;;;;;;;4973042;28;20196;-85
2022/07/02 02:05:20;;;;;;;5.30;4.90;;;;;;;;;;4972604;28;20200;-85
2022/07/02 02:07:47;;;;;;;6.27;5.67;;;;;;;;;;4972950;28;20312;-84
2022/07/02 02:10:14;;;;;;;7.00;6.40;;;;;;;;;;4972504;28;20235;-84
2022/07/02 02:12:41;;;;;;;7.37;6.77;;;;;;;;;;4972390;28;20310;-84
2022/07/02 02:15:11;;;;;;;6.97;6.27;;;;;;;;;;4972678;28;20205;-84
2022/07/02 02:17:38;;;;;;;7.50;6.20;;;;;;;;;;4972547;28;20282;-85
2022/07/02 02:20:06;;;;;;;11.00;6.40;;;;;;;;;;4972310;28;20205;-84
2022/07/02 02:22:33;;;;;;;7.27;6.60;;;;;;;;;;4972331;28;20205;-85
2022/07/02 02:25:00;;;;;;;7.40;6.80;;;;;;;;;;4972252;28;20259;-85
2022/07/02 02:27:27;;;;;;;6.40;5.80;;;;;;;;;;4972326;28;20221;-84
2022/07/02 02:29:55;;;;;;;6.97;6.27;;;;;;;;;;4972399;28;20270;-85
2022/07/02 02:32:23;;;;;;;7.43;6.70;;;;;;;;;;4972357;28;20205;-85
2022/07/02 02:34:50;;;;;;;6.87;6.17;;;;;;;;;;4972434;28;20209;-85
2022/07/02 02:37:17;;;;;;;8.97;6.30;;;;;;;;;;4972282;28;20266;-85
2022/07/02 02:39:44;;;;;;;7.00;6.30;;;;;;;;;;4971726;28;20682;-84
2022/07/02 02:42:11;;;;;;;6.30;5.73;;;;;;;;;;4964476;28;20205;-85
2022/07/02 02:44:38;;;;;;;10.37;6.33;;;;;;;;;;4972206;28;20634;-85
2022/07/02 02:47:06;;;;;;;8.40;6.50;;;;;;;;;;4972165;28;20292;-84
2022/07/02 02:49:34;;;;;;;8.57;6.93;;;;;;;;;;4972223;28;20205;-85
2022/07/02 02:52:01;;;;;;;7.33;6.73;;;;;;;;;;4972325;28;20205;-84
2022/07/02 02:54:28;;;;;;;6.43;5.93;;;;;;;;;;4972067;28;20227;-85
2022/07/02 02:56:55;;;;;;;7.67;6.87;;;;;;;;;;4971870;28;20252;-85
2022/07/02 02:59:22;;;;;;;7.50;6.80;;;;;;;;;;4972065;28;20255;-85
2022/07/02 03:01:49;;;;;;;8.40;7.00;;;;;;;;;;4971867;28;20209;-85
2022/07/02 03:04:16;;;;;;;8.00;7.27;;;;;;;;;;4971873;28;20633;-85
2022/07/02 03:06:45;;;;;;;7.57;6.97;;;;;;;;;;4971725;28;20197;-85
2022/07/02 03:09:12;;;;;;;7.30;6.70;;;;;;;;;;4971882;28;20282;-85
2022/07/02 03:11:39;;;;;;;7.13;6.43;;;;;;;;;;4972079;28;20205;-85
2022/07/02 03:14:06;;;;;;;7.80;6.93;;;;;;;;;;4971938;28;20735;-86
2022/07/02 03:16:33;;;;;;;7.73;7.07;;;;;;;;;;4971689;28;20259;-85
2022/07/02 03:19:00;;;;;;;9.07;7.63;;;;;;;;;;4972008;28;20274;-86
2022/07/02 03:21:27;;;;;;;7.37;6.77;;;;;;;;;;4971755;28;20201;-86
2022/07/02 03:23:55;;;;;;;8.80;7.37;;;;;;;;;;4971745;28;20262;-85
2022/07/02 03:26:22;;;;;;;8.37;7.57;;;;;;;;;;4971672;28;20635;-85
2022/07/02 03:28:49;;;;;;;7.80;7.20;;;;;;;;;;4971332;28;20236;-86
2022/07/02 03:31:16;;;;;;;10.97;7.03;;;;;;;;;;4971933;28;20205;-85
2022/07/02 03:33:43;;;;;;;8.97;8.20;;;;;;;;;;4971168;28;20238;-85
2022/07/02 03:36:11;;;;;;;8.07;7.10;;;;;;;;;;4971368;28;20205;-86
2022/07/02 03:38:38;;;;;;;8.53;7.73;;;;;;;;;;4971296;28;20292;-85
2022/07/02 03:41:08;;;;;;;9.90;9.00;;;;;;;;;;4971711;28;20265;-85
2022/07/02 03:43:35;;;;;;;8.27;7.67;;;;;;;;;;4969813;28;20251;-87
2022/07/02 03:46:02;;;;;;;8.63;7.83;;;;;;;;;;4971575;28;20201;-87
2022/07/02 03:48:29;;;;;;;7.43;6.47;;;;;;;;;;4971642;28;20221;-87
2022/07/02 03:50:56;;;;;;;8.50;7.83;;;;;;;;;;4970990;28;20205;-85
2022/07/02 03:53:23;;;;;;;8.57;7.60;;;;;;;;;;4969874;28;20201;-86
2022/07/02 03:55:50;;;;;;;8.03;7.23;;;;;;;;;;4970990;28;20240;-83
2022/07/02 03:58:19;;;;;;;7.80;7.13;;;;;;;;;;4970764;28;20251;-82
2022/07/02 04:00:46;;;;;;;8.07;7.37;;;;;;;;;;4972305;28;20263;-82
2022/07/02 04:03:13;;;;;;;8.03;7.33;;;;;;;;;;4970734;28;20674;-83
2022/07/02 04:05:40;;;;;;;9.10;8.40;;;;;;;;;;4970846;28;20205;-82
2022/07/02 04:08:07;;;;;;;8.10;7.50;;;;;;;;;;4970705;28;20228;-82
2022/07/02 04:10:34;;;;;;;9.80;7.30;;;;;;;;;;4970791;28;20205;-82
2022/07/02 04:13:01;;;;;;;8.43;7.63;;;;;;;;;;4970501;28;20205;-83
2022/07/02 04:15:30;;;;;;;10.97;7.77;;;;;;;;;;4970502;28;20263;-82
2022/07/02 04:17:57;;;;;;;13.93;10.47;;;;;;;;;;4970877;28;20201;-83
2022/07/02 04:20:24;;;;;;;8.27;7.67;;;;;;;;;;4970349;28;20744;-82
2022/07/02 04:22:51;;;;;;;8.37;7.73;;;;;;;;;;4970550;28;20274;-82
2022/07/02 04:25:18;;;;;;;11.40;8.30;;;;;;;;;;4970575;28;20619;-82
2022/07/02 04:27:45;;;;;;;9.20;8.50;;;;;;;;;;4970587;28;20274;-82
2022/07/02 04:30:13;;;;;;;8.83;7.97;;;;;;;;;;4970436;28;20633;-82
2022/07/02 04:32:41;;;;;;;8.17;7.37;;;;;;;;;;4970782;28;20208;-82
2022/07/02 04:35:09;;;;;;;11.23;7.97;;;;;;;;;;4970670;28;20202;-82
2022/07/02 04:37:36;;;;;;;8.80;7.87;;;;;;;;;;4970795;28;20201;-82
2022/07/02 04:40:03;;;;;;;9.43;8.30;;;;;;;;;;4970270;28;20200;-82
2022/07/02 04:42:30;;;;;;;9.47;7.87;;;;;;;;;;4970173;28;20205;-83
2022/07/02 04:44:57;;;;;;;7.57;6.87;;;;;;;;;;4970182;28;20201;-82
2022/07/02 04:47:24;;;;;;;9.90;6.73;;;;;;;;;;4970309;28;20231;-82
2022/07/02 04:49:53;;;;;;;6.50;6.10;;;;;;;;;;4969813;28;20240;-83
2022/07/02 04:52:20;;;;;;;9.13;6.73;;;;;;;;;;4970583;28;20255;-83
2022/07/02 04:54:47;;;;;;;8.60;7.03;;;;;;;;;;4969947;28;20205;-83
2022/07/02 04:57:14;;;;;;;6.93;6.23;;;;;;;;;;4970241;28;20616;-83
2022/07/02 04:59:44;;;;;;;6.90;6.40;;;;;;;;;;4970383;28;20645;-84
2022/07/02 05:02:11;;;;;;;7.43;6.80;;;;;;;;;;4970490;28;20677;-84
2022/07/02 05:04:38;;;;;;;6.17;5.60;;;;;;;;;;4972739;28;20201;-84
2022/07/02 05:07:07;;;;;;;7.33;6.60;;;;;;;;;;4973700;28;20682;-83
2022/07/02 05:09:34;;;;;;;7.13;6.53;;;;;;;;;;4973299;28;20225;-84
2022/07/02 05:12:01;;;;;;;6.57;5.93;;;;;;;;;;4973496;28;20205;-84
2022/07/02 05:14:28;;;;;;;8.67;6.57;;;;;;;;;;4973567;28;20201;-84
2022/07/02 05:16:55;;;;;;;8.57;6.77;;;;;;;;;;4973191;28;20263;-84
2022/07/02 05:19:22;;;;;;;7.57;6.97;;;;;;;;;;4973198;28;20197;-84
2022/07/02 05:21:49;;;;;;;8.10;6.50;;;;;;;;;;4973389;28;20197;-84
2022/07/02 05:24:18;;;;;;;7.70;7.10;;;;;;;;;;4973396;28;20224;-83
2022/07/02 05:26:45;;;;;;;7.97;7.17;;;;;;;;;;4973080;28;20591;-84
2022/07/02 05:29:12;;;;;;;8.00;7.20;;;;;;;;;;4972887;28;20713;-84
2022/07/02 05:31:39;;;;;;;7.03;6.47;;;;;;;;;;4973283;28;20201;-84
2022/07/02 05:34:06;;;;;;;7.07;6.47;;;;;;;;;;4973221;28;20197;-84
2022/07/02 05:36:33;;;;;;;8.83;7.20;;;;;;;;;;4972900;28;20213;-84
2022/07/02 05:39:00;;;;;;;7.77;7.17;;;;;;;;;;4972883;28;20291;-84
2022/07/02 05:41:29;;;;;;;9.53;7.57;;;;;;;;;;4973118;28;20201;-84
2022/07/02 05:43:56;;;;;;;9.47;7.10;;;;;;;;;;4972843;28;20196;-84
2022/07/02 05:46:23;;;;;;;6.93;6.30;;;;;;;;;;4973119;28;20204;-84
2022/07/02 05:48:50;;;;;;;8.23;6.53;;;;;;;;;;4972953;28;20606;-84
2022/07/02 05:51:17;;;;;;;6.80;6.30;;;;;;;;;;4972946;28;20201;-83
2022/07/02 05:53:44;;;;;;;6.90;6.27;;;;;;;;;;4972678;28;20205;-83
2022/07/02 05:56:12;;;;;;;6.70;6.10;;;;;;;;;;4972474;28;20233;-83
2022/07/02 05:58:41;;;;;;;6.37;5.87;;;;;;;;;;4972695;28;20205;-83
2022/07/02 06:01:08;;;;;;;5.90;5.40;;;;;;;;;;4972784;28;20258;-82
2022/07/02 06:03:35;;;;;;;6.90;5.50;;;;;;;;;;4973597;28;20202;-93
2022/07/02 06:08:46;;;;;;;9.53;5.40;;;;;;;;;;4973611;28;20212;-91
2022/07/02 06:11:13;;;;;;;9.23;5.70;;;;;;;;;;4973557;28;20201;-92
2022/07/02 06:13:42;;;;;;;7.60;5.20;;;;;;;;;;4974086;28;20258;-92
2022/07/02 06:16:09;;;;;;;8.63;5.60;;;;;;;;;;4972880;28;20287;-92
2022/07/02 06:18:37;;;;;;;6.67;6.03;;;;;;;;;;4973589;28;20682;-93
2022/07/02 06:21:04;;;;;;;11.77;5.97;;;;;;;;;;4973621;28;20262;-92
2022/07/02 06:23:31;;;;;;;5.60;5.07;;;;;;;;;;4973528;28;20289;-92
2022/07/02 06:25:58;;;;;;;5.83;5.13;;;;;;;;;;4973551;28;20662;-92
2022/07/02 06:28:26;;;;;;;5.70;5.17;;;;;;;;;;4973292;28;20739;-92
2022/07/02 06:30:54;;;;;;;5.63;5.07;;;;;;;;;;4973430;28;20258;-92
2022/07/02 06:33:22;;;;;;;5.37;4.17;;;;;;;;;;4973308;28;20227;-92
2022/07/02 06:35:49;;;;;;;5.23;4.83;;;;;;;;;;4973277;28;20231;-92
2022/07/02 06:38:16;;;;;;;5.33;4.60;;;;;;;;;;4973319;28;20260;-93
2022/07/02 06:40:43;;;;;;;5.80;5.23;;;;;;;;;;4973273;28;20258;-92
2022/07/02 06:43:10;;;;;;;4.77;4.37;;;;;;;;;;4965567;28;20270;-92
2022/07/02 06:45:37;;;;;;;4.47;4.17;;;;;;;;;;4973132;28;20247;-92
2022/07/02 06:48:06;;;;;;;5.50;4.97;;;;;;;;;;4973221;28;20258;-93
2022/07/02 06:50:33;;;;;;;5.23;4.37;;;;;;;;;;4972821;28;20225;-93
2022/07/02 06:53:03;;;;;;;4.87;4.57;;;;;;;;;;4973506;28;20658;-91
2022/07/02 06:55:31;;;;;;;5.10;4.73;;;;;;;;;;4972600;28;20236;-93
2022/07/02 06:57:58;;;;;;;5.37;4.97;;;;;;;;;;4972966;28;20201;-92
2022/07/02 07:00:25;;;;;;;6.40;5.80;;;;;;;;;;4972987;28;20255;-91
2022/07/02 07:02:52;;;;;;;5.88;5.38;;;;;;;;;;4972973;28;20207;-92
2022/07/02 07:08:03;;;;;;;5.43;4.97;;;;;;;;;;4971639;28;20213;-92
2022/07/02 07:10:38;;;;;;;11.07;5.80;;;;;;;;;;4972762;28;20229;-91
2022/07/02 07:16:09;;;;;;;7.68;5.47;;;;;;;;;;4972709;28;20205;-91
2022/07/02 07:18:42;;;;;;;9.27;5.45;;;;;;;;;;4972672;28;20197;-91
2022/07/02 07:21:20;;;;;;;7.32;5.35;;;;;;;;;;4972840;28;20258;-92
2022/07/02 07:27:18;;;;;;;7.25;6.55;;;;;;;;;;4972441;28;20167;-92
2022/07/02 07:29:45;;;;;;;7.43;5.95;;;;;;;;;;4972304;28;20259;-91
2022/07/02 07:32:12;;;;;;;9.77;6.18;;;;;;;;;;4972592;28;20193;-91
2022/07/02 07:34:42;;;;;;;7.85;6.60;;;;;;;;;;4972681;28;20205;-92
2022/07/02 07:37:12;;;;;;;7.47;6.53;;;;;;;;;;4972465;28;20213;-92
2022/07/02 07:42:22;;;;;;;9.25;7.18;;;;;;;;;;4964269;28;20211;-91
2022/07/02 07:44:49;;;;;;;7.97;7.22;;;;;;;;;;4972251;28;20201;-91
2022/07/02 07:47:17;;;;;;;7.78;6.97;;;;;;;;;;4972949;28;20205;-91
2022/07/02 07:49:44;;;;;;;7.97;7.18;;;;;;;;;;4972005;28;20229;-93
2022/07/02 07:52:12;;;;;;;8.18;7.47;;;;;;;;;;4984137;28;20261;-94
2022/07/02 07:54:39;;;;;;;8.23;7.35;;;;;;;;;;4991925;28;20196;-93
2022/07/02 07:57:07;;;;;;;7.53;6.85;;;;;;;;;;4991984;28;20212;-94
2022/07/02 07:59:34;;;;;;;7.53;6.93;;;;;;;;;;4991849;28;20197;-93
2022/07/02 08:02:01;;;;;;;7.97;7.18;;;;;;;;;;4991725;28;20636;-93
2022/07/02 08:04:29;;;;;;;8.00;7.30;;;;;;;;;;4991496;28;20616;-94
2022/07/02 08:06:56;;;;;;;7.60;6.90;;;;;;;;;;4991288;28;20203;-93
2022/07/02 08:09:25;;;;;;;9.70;7.28;;;;;;;;;;4991669;28;20257;-94
2022/07/02 08:11:52;;;;;;;9.50;6.53;;;;;;;;;;4991407;28;20200;-92
2022/07/02 08:14:19;;;;;;;8.10;5.93;;;;;;;;;;4991321;28;20200;-93
2022/07/02 08:16:46;;;;;;;7.32;6.72;;;;;;;;;;4989713;28;20629;-91
2022/07/02 08:19:13;;;;;;;8.93;6.32;;;;;;;;;;4991205;28;20208;-93
2022/07/02 08:21:40;;;;;;;8.13;6.15;;;;;;;;;;4991746;28;20726;-93
2022/07/02 08:24:07;;;;;;;5.68;5.18;;;;;;;;;;4991250;28;20208;-96
2022/07/02 08:26:36;;;;;;;7.88;6.00;;;;;;;;;;4991484;28;20265;-93
2022/07/02 08:29:03;;;;;;;6.72;6.22;;;;;;;;;;4991807;28;20257;-95
2022/07/02 08:31:30;;;;;;;6.13;5.68;;;;;;;;;;4991404;28;20213;-96
2022/07/02 08:33:58;;;;;;;6.65;5.90;;;;;;;;;;4991142;28;20274;-95
2022/07/02 08:39:21;;;;;;;6.72;6.13;;;;;;;;;;4989883;28;20681;-95
2022/07/02 08:41:50;;;;;;;6.93;6.43;;;;;;;;;;4990996;28;20204;-94
2022/07/02 08:44:17;;;;;;;6.88;6.18;;;;;;;;;;4990638;28;20208;-94
2022/07/02 08:46:45;;;;;;;6.55;5.88;;;;;;;;;;4990831;28;20635;-94
2022/07/02 08:49:12;;;;;;;6.95;6.35;;;;;;;;;;4991360;28;20200;-94
2022/07/02 08:51:41;;;;;;;8.52;6.78;;;;;;;;;;4991071;28;20227;-96
2022/07/02 08:54:08;;;;;;;7.35;6.68;;;;;;;;;;4992338;28;20743;-95
2022/07/02 08:56:35;;;;;;;9.38;6.50;;;;;;;;;;4992460;28;20793;-94
2022/07/02 08:59:05;;;;;;;7.32;6.03;;;;;;;;;;4992661;28;20208;-96
2022/07/02 09:01:32;;;;;;;7.03;6.45;;;;;;;;;;4996983;28;20313;-95
2022/07/02 09:04:01;;;;;;;6.22;5.70;;;;;;;;;;4990778;28;20570;-93
2022/07/02 09:06:29;;;;;;;7.10;6.43;;;;;;;;;;4990544;28;20257;-95
2022/07/02 09:08:56;;;;;;;6.50;5.97;;;;;;;;;;4990629;28;20208;-94
2022/07/02 09:11:24;;;;;;;6.82;6.20;;;;;;;;;;4990263;28;20254;-93
2022/07/02 09:13:51;;;;;;;6.85;6.10;;;;;;;;;;4990504;28;20562;-93
2022/07/02 09:16:20;;;;;;;6.82;6.30;;;;;;;;;;4990545;28;20254;-94
2022/07/02 09:18:47;;;;;;;6.30;5.72;;;;;;;;;;4990687;28;20584;-93
2022/07/02 09:21:15;;;;;;;6.47;5.80;;;;;;;;;;4990752;28;20629;-93
2022/07/02 09:23:47;;;;;;;6.45;5.90;;;;;;;;;;4990379;28;20204;-94
2022/07/02 09:26:21;;;;;;;5.97;5.50;;;;;;;;;;4990735;28;20279;-94
2022/07/02 09:28:55;;;;;;;7.50;6.82;;;;;;;;;;4990476;28;21053;-93
2022/07/02 09:31:24;;;;;;;7.03;6.50;;;;;;;;;;4989634;28;20310;-94
2022/07/02 09:33:51;;;;;;;8.57;6.32;;;;;;;;;;4990143;28;20204;-93
2022/07/02 09:36:19;;;;;;;5.93;5.53;;;;;;;;;;4990711;28;20204;-92
2022/07/02 09:38:49;;;;;;;7.07;5.20;;;;;;;;;;4990273;28;20254;-96
2022/07/02 09:41:20;;;;;;;6.05;5.55;;;;;;;;;;4990188;28;20689;-93
2022/07/02 09:43:52;;;;;;;6.55;5.10;;;;;;;;;;4990361;28;20287;-92
2022/07/02 09:46:21;;;;;;;6.90;6.30;;;;;;;;;;4990796;28;20195;-93
2022/07/02 09:48:50;;;;;;;6.47;5.93;;;;;;;;;;4990119;28;20200;-91
2022/07/02 09:51:18;;;;;;;6.28;5.50;;;;;;;;;;4992998;28;20228;-92
2022/07/02 09:53:50;;;;;;;7.38;5.97;;;;;;;;;;4993284;28;20205;-93
2022/07/02 09:56:17;;;;;;;6.78;5.55;;;;;;;;;;4993185;28;20277;-93
2022/07/02 09:58:44;;;;;;;6.15;5.53;;;;;;;;;;4993512;28;20562;-90
2022/07/02 10:01:11;;;;;;;6.18;5.65;;;;;;;;;;4985911;28;20204;-92
2022/07/02 10:03:50;;;;;;;5.20;4.80;;;;;;;;;;4993306;28;20216;-93
2022/07/02 10:06:18;;;;;;;5.15;4.72;;;;;;;;;;4993712;28;20189;-91
2022/07/02 10:08:45;;;;;;;6.22;5.68;;;;;;;;;;4993847;28;20648;-91
2022/07/02 10:11:14;;;;;;;5.05;4.75;;;;;;;;;;4993114;28;20228;-92
2022/07/02 10:13:42;;;;;;;5.80;5.10;;;;;;;;;;4993307;28;20197;-93
2022/07/02 10:16:13;;;;;;;5.32;5.03;;;;;;;;;;4993086;28;20266;-93
2022/07/02 10:18:41;;;;;;;9.77;5.43;;;;;;;;;;4993112;28;20208;-92
2022/07/02 10:21:12;;;;;;;5.57;5.18;;;;;;;;;;4992905;28;20279;-92
2022/07/02 10:23:40;;;;;;;5.53;5.05;;;;;;;;;;4993050;28;20212;-92
2022/07/02 10:26:07;;;;;;;6.18;5.57;;;;;;;;;;4992962;28;20200;-92
2022/07/02 10:28:34;;;;;;;5.40;4.85;;;;;;;;;;4992754;28;20237;-91
2022/07/02 10:31:02;;;;;;;6.10;5.60;;;;;;;;;;4992692;28;20312;-92
2022/07/02 10:33:39;;;;;;;6.20;5.55;;;;;;;;;;4993060;28;20204;-91
2022/07/02 10:36:10;;;;;;;5.97;4.78;;;;;;;;;;4992830;28;20203;-93
2022/07/02 10:38:38;;;;;;;6.07;5.03;;;;;;;;;;4993052;28;20185;-92
2022/07/02 10:41:06;;;;;;;8.63;5.25;;;;;;;;;;4992818;28;20204;-91
2022/07/02 10:43:34;;;;;;;5.45;5.03;;;;;;;;;;4992622;28;20231;-91
2022/07/02 10:46:05;;;;;;;7.07;5.85;;;;;;;;;;4992507;28;20200;-91
2022/07/02 10:48:34;;;;;;;5.40;5.00;;;;;;;;;;4992402;28;20196;-91
2022/07/02 10:51:01;;;;;;;8.05;5.68;;;;;;;;;;4992400;28;20307;-92
2022/07/02 10:53:30;;;;;;;5.88;5.35;;;;;;;;;;4992284;28;20253;-91
2022/07/02 10:56:03;;;;;;;5.75;4.95;;;;;;;;;;4992069;28;20238;-91
2022/07/02 10:58:32;;;;;;;9.07;5.75;;;;;;;;;;4992975;28;20223;-92
2022/07/02 11:01:10;;;;;;;6.35;5.75;;;;;;;;;;4991938;28;20204;-91
2022/07/02 11:03:37;;;;;;;6.63;6.13;;;;;;;;;;4992381;28;20571;-93
2022/07/02 11:06:05;;;;;;;9.60;5.38;;;;;;;;;;4992522;28;20639;-91
2022/07/02 11:08:55;;;;;;;5.80;5.30;;;;;;;;;;4992533;28;20204;-92
2022/07/02 11:11:45;;;;;;;5.63;5.18;;;;;;;;;;4985631;28;20216;-93
2022/07/02 11:14:13;;;;;;;5.50;5.10;;;;;;;;;;4988468;28;20197;-94
2022/07/02 11:16:42;;;;;;;6.03;5.53;;;;;;;;;;4992068;28;20575;-92
2022/07/02 11:19:16;;;;;;;7.55;5.53;;;;;;;;;;4992866;28;20203;-93
2022/07/02 11:21:43;;;;;;;6.13;4.82;;;;;;;;;;4992279;28;20188;-91
2022/07/02 11:24:13;;;;;;;6.13;5.63;;;;;;;;;;4983961;28;20207;-93
2022/07/02 11:26:42;;;;;;;5.47;5.07;;;;;;;;;;4991563;28;20254;-93
2022/07/02 11:29:10;;;;;;;5.82;5.20;;;;;;;;;;4991833;28;20227;-93
2022/07/02 11:31:38;;;;;;;5.65;5.25;;;;;;;;;;4991702;28;20224;-91
2022/07/02 11:34:06;;;;;;;5.32;4.88;;;;;;;;;;4992100;28;20615;-93
2022/07/02 11:36:33;;;;;;;5.22;4.72;;;;;;;;;;4991829;28;20616;-92
2022/07/02 11:39:00;;;;;;;6.28;4.60;;;;;;;;;;4991551;28;20196;-92
2022/07/02 11:41:34;;;;;;;5.22;4.80;;;;;;;;;;4991642;28;20204;-94
2022/07/02 11:44:06;;;;;;;5.00;4.70;;;;;;;;;;4991940;28;20200;-93
2022/07/02 11:46:33;;;;;;;6.95;4.75;;;;;;;;;;4991325;28;20208;-91
2022/07/02 11:49:00;;;;;;;5.40;4.55;;;;;;;;;;4990130;28;20204;-89
2022/07/02 11:51:27;;;;;;;5.35;4.88;;;;;;;;;;4992184;28;20224;-88
2022/07/02 11:53:59;;;;;;;5.70;5.25;;;;;;;;;;4991069;28;20294;-88
2022/07/02 11:56:26;;;;;;;5.25;4.75;;;;;;;;;;4990824;28;20243;-87
2022/07/02 11:58:55;;;;;;;5.70;4.97;;;;;;;;;;4991430;28;20661;-88
2022/07/02 12:01:24;;;;;;;4.80;4.40;;;;;;;;;;4991518;28;20257;-90
2022/07/02 12:03:52;;;;;;;5.05;4.65;;;;;;;;;;4991444;28;20257;-91
2022/07/02 12:06:20;;;;;;;6.95;5.13;;;;;;;;;;4996129;28;20195;-90
2022/07/02 12:08:47;;;;;;;5.80;5.40;;;;;;;;;;5011033;28;20195;-89
2022/07/02 12:11:15;;;;;;;7.72;5.47;;;;;;;;;;5010867;28;20223;-90
2022/07/02 12:13:42;;;;;;;5.50;5.07;;;;;;;;;;5009967;28;20557;-89
2022/07/02 12:16:16;;;;;;;9.45;5.50;;;;;;;;;;5010694;28;20195;-89
2022/07/02 12:18:44;;;;;;;5.53;5.03;;;;;;;;;;5010527;28;20237;-90
2022/07/02 12:21:17;;;;;;;4.82;4.40;;;;;;;;;;5002581;28;20199;-89
2022/07/02 12:23:50;;;;;;;5.65;5.15;;;;;;;;;;4983672;28;20216;-90
2022/07/02 12:26:22;;;;;;;11.02;5.22;;;;;;;;;;4990950;28;20223;-89
2022/07/02 12:31:44;;;;;;;4.95;4.55;;;;;;;;;;4991186;28;20250;-89
2022/07/02 12:34:11;;;;;;;5.38;4.60;;;;;;;;;;4990739;28;20188;-88
2022/07/02 12:36:50;;;;;;;4.55;4.18;;;;;;;;;;4990711;28;20741;-87
2022/07/02 12:39:17;;;;;;;5.00;4.63;;;;;;;;;;4991046;28;20239;-88
2022/07/02 12:41:44;;;;;;;5.68;4.50;;;;;;;;;;4990452;28;20205;-87
2022/07/02 12:44:18;;;;;;;4.50;4.10;;;;;;;;;;4990886;28;20258;-88
2022/07/02 12:46:48;;;;;;;4.55;4.25;;;;;;;;;;4990711;28;20207;-88
2022/07/02 12:49:17;;;;;;;5.13;3.97;;;;;;;;;;4990764;28;20699;-88
2022/07/02 12:52:00;;;;;;;4.32;4.00;;;;;;;;;;4990318;28;20223;-87
2022/07/02 12:54:40;;;;;;;4.43;3.97;;;;;;;;;;4990162;28;20223;-86
2022/07/02 12:57:15;;;;;;;6.32;4.18;;;;;;;;;;4990536;28;20189;-88
2022/07/02 12:59:42;;;;;;;4.70;3.55;;;;;;;;;;4990467;28;20245;-89
2022/07/02 13:02:15;;;;;;;5.05;4.15;;;;;;;;;;4991683;28;20246;-96
2022/07/02 13:04:43;;;;;;;4.60;4.20;;;;;;;;;;4989941;28;20204;-94
2022/07/02 13:07:13;;;;;;;4.72;4.18;;;;;;;;;;4969075;28;20208;-95
2022/07/02 13:09:40;;;;;;;6.32;4.28;;;;;;;;;;4972278;28;20228;-96
2022/07/02 13:12:10;;;;;;;3.83;3.53;;;;;;;;;;4971742;28;20247;-96
2022/07/02 13:14:37;;;;;;;6.90;4.60;;;;;;;;;;4972676;28;20255;-96
2022/07/02 13:17:05;;;;;;;4.22;3.85;;;;;;;;;;4971199;28;20209;-95
2022/07/02 13:19:36;;;;;;;4.82;3.97;;;;;;;;;;4971328;28;20211;-95
2022/07/02 13:22:04;;;;;;;7.15;4.32;;;;;;;;;;4971612;28;20212;-96
2022/07/02 13:24:31;;;;;;;4.90;3.90;;;;;;;;;;4972726;28;20588;-95
2022/07/02 13:26:58;;;;;;;5.78;3.80;;;;;;;;;;4975052;28;20735;-95
2022/07/02 13:29:25;;;;;;;4.22;3.92;;;;;;;;;;4974698;28;20266;-96
2022/07/02 13:31:53;;;;;;;6.15;4.80;;;;;;;;;;4974597;28;20221;-96
2022/07/02 13:34:20;;;;;;;5.22;3.97;;;;;;;;;;4974559;28;20205;-96
2022/07/02 13:36:49;;;;;;;4.00;3.47;;;;;;;;;;4983505;28;20238;-96
2022/07/02 13:39:16;;;;;;;6.30;3.90;;;;;;;;;;4990850;28;20213;-95
2022/07/02 13:41:43;;;;;;;4.28;3.97;;;;;;;;;;4993658;28;20562;-96
2022/07/02 13:44:10;;;;;;;3.97;3.78;;;;;;;;;;4986167;28;20203;-96
2022/07/02 13:46:38;;;;;;;5.63;4.63;;;;;;;;;;4993777;28;20572;-95
2022/07/02 13:49:05;;;;;;;4.85;4.10;;;;;;;;;;4993640;28;20283;-96
2022/07/02 13:51:33;;;;;;;4.90;4.45;;;;;;;;;;4990236;28;20228;-95
2022/07/02 13:54:01;;;;;;;4.97;4.60;;;;;;;;;;4993938;28;20197;-95
2022/07/02 13:56:29;;;;;;;5.38;4.88;;;;;;;;;;4993537;28;20673;-95
2022/07/02 13:58:56;;;;;;;6.18;4.82;;;;;;;;;;4994082;28;20204;-96
2022/07/02 14:01:23;;;;;;;5.15;4.65;;;;;;;;;;4994444;28;20697;-96
2022/07/02 14:10:24;;;;;;;4.07;3.78;;;;;;;;;;4898107;29;20257;-95
2022/07/02 14:12:51;;;;;;;4.68;4.28;;;;;;;;;;4889635;29;20229;-96
2022/07/02 14:15:18;;;;;;;4.25;3.85;;;;;;;;;;4889206;29;20209;-96
2022/07/02 14:17:52;;;;;;;13.40;4.68;;;;;;;;;;4887336;29;20213;-95
2022/07/02 14:20:19;;;;;;;5.22;4.75;;;;;;;;;;4886966;29;20201;-95
2022/07/02 14:22:46;;;;;;;6.55;4.50;;;;;;;;;;4887374;29;20217;-96
2022/07/02 14:27:56;;;;;;;4.53;4.22;;;;;;;;;;4886386;29;20296;-96
2022/07/02 14:30:23;;;;;;;5.53;4.50;;;;;;;;;;4919636;28;20201;-96
2022/07/02 14:32:50;;;;;;;10.25;3.90;;;;;;;;;;4974935;28;20574;-95
2022/07/02 14:35:18;;;;;;;6.22;4.65;;;;;;;;;;4975045;28;20212;-95
2022/07/02 14:37:45;;;;;;;6.60;4.65;;;;;;;;;;4975048;28;20212;-95
2022/07/02 14:40:13;;;;;;;4.40;4.05;;;;;;;;;;4975223;28;20266;-96
2022/07/02 14:42:41;;;;;;;4.57;4.10;;;;;;;;;;4974903;28;20194;-95
2022/07/02 14:45:09;;;;;;;4.40;4.00;;;;;;;;;;4975998;28;20772;-95
2022/07/02 14:47:36;;;;;;;4.50;4.10;;;;;;;;;;4992547;28;20200;-95
2022/07/02 14:50:04;;;;;;;5.30;4.80;;;;;;;;;;4993473;28;20200;-96
2022/07/02 14:52:31;;;;;;;7.35;4.15;;;;;;;;;;4992516;28;20220;-95
2022/07/02 14:54:58;;;;;;;4.88;4.55;;;;;;;;;;4992847;28;20200;-96
2022/07/02 14:57:25;;;;;;;6.90;4.53;;;;;;;;;;4992740;28;20676;-95
2022/07/02 14:59:54;;;;;;;4.72;3.90;;;;;;;;;;4992879;28;20199;-95
2022/07/02 15:02:21;;;;;;;4.72;4.32;;;;;;;;;;4992843;28;20206;-95
2022/07/02 15:04:48;;;;;;;3.95;3.63;;;;;;;;;;4992682;28;20266;-96
2022/07/02 15:07:15;;;;;;;4.68;4.28;;;;;;;;;;4992478;28;20200;-96
2022/07/02 15:09:43;;;;;;;5.13;4.72;;;;;;;;;;4992621;28;20241;-95
2022/07/02 15:12:10;;;;;;;5.28;4.60;;;;;;;;;;4992944;28;20224;-96
2022/07/02 15:17:32;;;;;;;4.97;4.43;;;;;;;;;;4969211;28;20202;-96
2022/07/02 15:19:59;;;;;;;5.18;4.68;;;;;;;;;;4992696;28;20219;-95
2022/07/02 15:22:35;;;;;;;5.50;5.00;;;;;;;;;;4992940;28;20196;-96
2022/07/02 15:25:04;;;;;;;5.05;4.65;;;;;;;;;;4992761;28;20592;-95